sensor_id;sensor_type;location;lat;lon;timestamp;P1;durP1;ratioP1;P2;durP2;ratioP2
29984;SDS011;17387;42.690;23.328;2023-01-30T00:00:00;30.65;;;13.95;;
29984;SDS011;17387;42.690;23.328;2023-01-30T00:02:25;39.38;;;16.38;;
29984;SDS011;17387;42.690;23.328;2023-01-30T00:04:51;35.08;;;15.70;;
29984;SDS011;17387;42.690;23.328;2023-01-30T00:07:16;32.97;;;15.48;;
29984;SDS011;17387;42.690;23.328;2023-01-30T00:09:41;35.80;;;15.82;;
29984;SDS011;17387;42.690;23.328;2023-01-30T00:12:06;33.53;;;14.60;;
29984;SDS011;17387;42.690;23.328;2023-01-30T00:14:31;34.65;;;15.75;;
29984;SDS011;17387;42.690;23.328;2023-01-30T00:16:57;37.25;;;16.77;;
29984;SDS011;17387;42.690;23.328;2023-01-30T00:19:22;36.95;;;16.15;;
29984;SDS011;17387;42.690;23.328;2023-01-30T00:21:47;37.45;;;16.50;;
29984;SDS011;17387;42.690;23.328;2023-01-30T00:24:13;31.25;;;13.68;;
29984;SDS011;17387;42.690;23.328;2023-01-30T00:26:38;34.17;;;15.43;;
29984;SDS011;17387;42.690;23.328;2023-01-30T00:29:03;33.55;;;16.27;;
29984;SDS011;17387;42.690;23.328;2023-01-30T00:31:28;35.00;;;14.90;;
29984;SDS011;17387;42.690;23.328;2023-01-30T00:33:54;35.28;;;15.13;;
29984;SDS011;17387;42.690;23.328;2023-01-30T00:36:19;35.80;;;15.02;;
29984;SDS011;17387;42.690;23.328;2023-01-30T00:38:44;34.47;;;14.70;;
29984;SDS011;17387;42.690;23.328;2023-01-30T00:41:09;33.97;;;14.98;;
29984;SDS011;17387;42.690;23.328;2023-01-30T00:43:37;38.50;;;16.58;;
29984;SDS011;17387;42.690;23.328;2023-01-30T00:49:08;31.38;;;13.63;;
29984;SDS011;17387;42.690;23.328;2023-01-30T00:51:33;33.47;;;14.52;;
29984;SDS011;17387;42.690;23.328;2023-01-30T00:53:58;31.73;;;14.25;;
29984;SDS011;17387;42.690;23.328;2023-01-30T00:56:23;32.13;;;13.85;;
29984;SDS011;17387;42.690;23.328;2023-01-30T00:58:49;35.10;;;14.48;;
29984;SDS011;17387;42.690;23.328;2023-01-30T01:01:14;34.58;;;13.32;;
29984;SDS011;17387;42.690;23.328;2023-01-30T01:03:39;31.60;;;15.70;;
29984;SDS011;17387;42.690;23.328;2023-01-30T01:06:05;32.08;;;13.85;;
29984;SDS011;17387;42.690;23.328;2023-01-30T01:08:30;33.97;;;15.23;;
29984;SDS011;17387;42.690;23.328;2023-01-30T01:10:55;34.97;;;15.05;;
29984;SDS011;17387;42.690;23.328;2023-01-30T01:13:20;34.33;;;14.18;;
29984;SDS011;17387;42.690;23.328;2023-01-30T01:15:46;29.80;;;13.68;;
29984;SDS011;17387;42.690;23.328;2023-01-30T01:18:11;35.53;;;15.18;;
29984;SDS011;17387;42.690;23.328;2023-01-30T01:20:36;32.50;;;13.88;;
29984;SDS011;17387;42.690;23.328;2023-01-30T01:23:01;35.33;;;14.65;;
29984;SDS011;17387;42.690;23.328;2023-01-30T01:25:27;33.65;;;13.40;;
29984;SDS011;17387;42.690;23.328;2023-01-30T01:27:53;30.95;;;13.57;;
29984;SDS011;17387;42.690;23.328;2023-01-30T01:30:19;33.60;;;14.95;;
29984;SDS011;17387;42.690;23.328;2023-01-30T01:32:44;28.73;;;13.93;;
29984;SDS011;17387;42.690;23.328;2023-01-30T01:35:09;31.58;;;14.75;;
29984;SDS011;17387;42.690;23.328;2023-01-30T01:37:36;31.75;;;13.90;;
29984;SDS011;17387;42.690;23.328;2023-01-30T01:40:02;29.85;;;12.20;;
29984;SDS011;17387;42.690;23.328;2023-01-30T01:42:46;32.17;;;13.55;;
29984;SDS011;17387;42.690;23.328;2023-01-30T01:45:16;32.15;;;14.50;;
29984;SDS011;17387;42.690;23.328;2023-01-30T01:50:27;34.00;;;15.02;;
29984;SDS011;17387;42.690;23.328;2023-01-30T01:52:53;26.55;;;12.60;;
29984;SDS011;17387;42.690;23.328;2023-01-30T01:55:20;32.03;;;14.88;;
29984;SDS011;17387;42.690;23.328;2023-01-30T01:57:52;35.67;;;14.50;;
29984;SDS011;17387;42.690;23.328;2023-01-30T02:00:19;30.50;;;13.05;;
29984;SDS011;17387;42.690;23.328;2023-01-30T02:02:52;27.77;;;13.70;;
29984;SDS011;17387;42.690;23.328;2023-01-30T02:05:21;29.88;;;13.20;;
29984;SDS011;17387;42.690;23.328;2023-01-30T02:10:24;29.23;;;13.18;;
29984;SDS011;17387;42.690;23.328;2023-01-30T02:12:52;34.50;;;14.13;;
29984;SDS011;17387;42.690;23.328;2023-01-30T02:15:18;31.88;;;14.35;;
29984;SDS011;17387;42.690;23.328;2023-01-30T02:17:43;30.27;;;13.38;;
29984;SDS011;17387;42.690;23.328;2023-01-30T02:41:12;31.67;;;13.73;;
29984;SDS011;17387;42.690;23.328;2023-01-30T02:43:57;28.73;;;12.77;;
29984;SDS011;17387;42.690;23.328;2023-01-30T02:48:59;25.48;;;11.10;;
29984;SDS011;17387;42.690;23.328;2023-01-30T02:51:29;27.27;;;12.00;;
29984;SDS011;17387;42.690;23.328;2023-01-30T02:53:55;26.88;;;12.95;;
29984;SDS011;17387;42.690;23.328;2023-01-30T02:56:20;28.45;;;13.15;;
29984;SDS011;17387;42.690;23.328;2023-01-30T02:58:51;28.20;;;12.52;;
29984;SDS011;17387;42.690;23.328;2023-01-30T03:04:06;27.33;;;11.90;;
29984;SDS011;17387;42.690;23.328;2023-01-30T03:06:42;28.77;;;12.90;;
29984;SDS011;17387;42.690;23.328;2023-01-30T03:14:19;29.42;;;11.25;;
29984;SDS011;17387;42.690;23.328;2023-01-30T03:16:47;24.95;;;11.10;;
29984;SDS011;17387;42.690;23.328;2023-01-30T03:19:14;28.10;;;12.30;;
29984;SDS011;17387;42.690;23.328;2023-01-30T03:21:43;28.15;;;12.40;;
29984;SDS011;17387;42.690;23.328;2023-01-30T03:24:09;26.98;;;12.40;;
29984;SDS011;17387;42.690;23.328;2023-01-30T03:26:34;27.08;;;11.88;;
29984;SDS011;17387;42.690;23.328;2023-01-30T03:29:01;28.67;;;12.55;;
29984;SDS011;17387;42.690;23.328;2023-01-30T03:31:27;26.95;;;11.15;;
29984;SDS011;17387;42.690;23.328;2023-01-30T03:33:52;24.15;;;10.85;;
29984;SDS011;17387;42.690;23.328;2023-01-30T03:36:17;24.77;;;12.77;;
29984;SDS011;17387;42.690;23.328;2023-01-30T03:38:43;24.95;;;11.80;;
29984;SDS011;17387;42.690;23.328;2023-01-30T03:41:08;29.23;;;11.30;;
29984;SDS011;17387;42.690;23.328;2023-01-30T03:43:33;27.55;;;12.52;;
29984;SDS011;17387;42.690;23.328;2023-01-30T03:45:59;29.50;;;12.93;;
29984;SDS011;17387;42.690;23.328;2023-01-30T03:48:24;31.50;;;13.23;;
29984;SDS011;17387;42.690;23.328;2023-01-30T03:50:49;26.90;;;12.93;;
29984;SDS011;17387;42.690;23.328;2023-01-30T03:53:14;25.25;;;11.93;;
29984;SDS011;17387;42.690;23.328;2023-01-30T03:55:40;24.88;;;12.27;;
29984;SDS011;17387;42.690;23.328;2023-01-30T03:58:05;26.00;;;12.65;;
29984;SDS011;17387;42.690;23.328;2023-01-30T04:00:30;26.30;;;12.38;;
29984;SDS011;17387;42.690;23.328;2023-01-30T04:02:56;29.05;;;13.52;;
29984;SDS011;17387;42.690;23.328;2023-01-30T04:05:22;28.20;;;13.30;;
29984;SDS011;17387;42.690;23.328;2023-01-30T04:07:48;29.15;;;13.57;;
29984;SDS011;17387;42.690;23.328;2023-01-30T04:10:14;28.92;;;13.38;;
29984;SDS011;17387;42.690;23.328;2023-01-30T04:12:40;25.55;;;11.43;;
29984;SDS011;17387;42.690;23.328;2023-01-30T04:15:06;30.45;;;12.57;;
29984;SDS011;17387;42.690;23.328;2023-01-30T04:17:32;26.58;;;12.27;;
29984;SDS011;17387;42.690;23.328;2023-01-30T04:19:57;26.15;;;13.57;;
29984;SDS011;17387;42.690;23.328;2023-01-30T04:22:23;27.25;;;12.70;;
29984;SDS011;17387;42.690;23.328;2023-01-30T04:24:48;27.73;;;12.10;;
29984;SDS011;17387;42.690;23.328;2023-01-30T04:27:13;25.30;;;12.20;;
29984;SDS011;17387;42.690;23.328;2023-01-30T04:29:38;28.33;;;11.60;;
29984;SDS011;17387;42.690;23.328;2023-01-30T04:32:04;31.10;;;13.20;;
29984;SDS011;17387;42.690;23.328;2023-01-30T04:34:29;28.83;;;11.75;;
29984;SDS011;17387;42.690;23.328;2023-01-30T04:36:54;26.77;;;11.13;;
29984;SDS011;17387;42.690;23.328;2023-01-30T04:39:20;27.73;;;12.13;;
29984;SDS011;17387;42.690;23.328;2023-01-30T04:41:45;26.95;;;11.63;;
29984;SDS011;17387;42.690;23.328;2023-01-30T04:44:10;31.40;;;13.88;;
29984;SDS011;17387;42.690;23.328;2023-01-30T04:46:35;29.55;;;12.75;;
29984;SDS011;17387;42.690;23.328;2023-01-30T04:49:01;30.42;;;13.55;;
29984;SDS011;17387;42.690;23.328;2023-01-30T04:51:26;29.55;;;14.45;;
29984;SDS011;17387;42.690;23.328;2023-01-30T04:53:51;30.85;;;13.57;;
29984;SDS011;17387;42.690;23.328;2023-01-30T04:56:16;31.75;;;12.80;;
29984;SDS011;17387;42.690;23.328;2023-01-30T04:58:42;33.40;;;15.02;;
29984;SDS011;17387;42.690;23.328;2023-01-30T05:01:11;30.55;;;13.35;;
29984;SDS011;17387;42.690;23.328;2023-01-30T05:03:36;30.48;;;13.13;;
29984;SDS011;17387;42.690;23.328;2023-01-30T05:06:01;30.40;;;13.98;;
29984;SDS011;17387;42.690;23.328;2023-01-30T05:08:26;32.58;;;14.82;;
29984;SDS011;17387;42.690;23.328;2023-01-30T05:10:52;32.03;;;14.30;;
29984;SDS011;17387;42.690;23.328;2023-01-30T05:13:17;32.53;;;13.48;;
29984;SDS011;17387;42.690;23.328;2023-01-30T05:15:43;30.90;;;14.20;;
29984;SDS011;17387;42.690;23.328;2023-01-30T05:18:09;32.13;;;13.27;;
29984;SDS011;17387;42.690;23.328;2023-01-30T05:20:34;37.50;;;16.25;;
29984;SDS011;17387;42.690;23.328;2023-01-30T05:22:59;29.15;;;14.25;;
29984;SDS011;17387;42.690;23.328;2023-01-30T05:25:24;33.28;;;13.90;;
29984;SDS011;17387;42.690;23.328;2023-01-30T05:27:50;38.90;;;16.08;;
29984;SDS011;17387;42.690;23.328;2023-01-30T05:30:15;36.97;;;15.95;;
29984;SDS011;17387;42.690;23.328;2023-01-30T05:32:40;41.38;;;16.33;;
29984;SDS011;17387;42.690;23.328;2023-01-30T05:35:06;35.47;;;16.30;;
29984;SDS011;17387;42.690;23.328;2023-01-30T05:37:31;37.28;;;16.90;;
29984;SDS011;17387;42.690;23.328;2023-01-30T05:39:57;41.75;;;18.48;;
29984;SDS011;17387;42.690;23.328;2023-01-30T05:42:22;39.15;;;16.73;;
29984;SDS011;17387;42.690;23.328;2023-01-30T05:44:47;41.35;;;17.38;;
29984;SDS011;17387;42.690;23.328;2023-01-30T05:47:12;37.05;;;15.23;;
29984;SDS011;17387;42.690;23.328;2023-01-30T05:49:38;43.70;;;16.40;;
29984;SDS011;17387;42.690;23.328;2023-01-30T05:52:03;46.10;;;19.00;;
29984;SDS011;17387;42.690;23.328;2023-01-30T05:54:28;45.03;;;18.15;;
29984;SDS011;17387;42.690;23.328;2023-01-30T05:56:54;44.28;;;18.52;;
29984;SDS011;17387;42.690;23.328;2023-01-30T05:59:19;42.67;;;17.95;;
29984;SDS011;17387;42.690;23.328;2023-01-30T06:01:44;48.42;;;19.98;;
29984;SDS011;17387;42.690;23.328;2023-01-30T06:04:10;52.22;;;20.88;;
29984;SDS011;17387;42.690;23.328;2023-01-30T06:06:35;50.33;;;20.17;;
29984;SDS011;17387;42.690;23.328;2023-01-30T06:09:00;49.72;;;20.30;;
29984;SDS011;17387;42.690;23.328;2023-01-30T06:11:26;51.25;;;19.75;;
29984;SDS011;17387;42.690;23.328;2023-01-30T06:13:51;51.13;;;20.52;;
29984;SDS011;17387;42.690;23.328;2023-01-30T06:16:18;51.67;;;22.08;;
29984;SDS011;17387;42.690;23.328;2023-01-30T06:18:44;49.28;;;20.58;;
29984;SDS011;17387;42.690;23.328;2023-01-30T06:21:12;48.15;;;19.00;;
29984;SDS011;17387;42.690;23.328;2023-01-30T06:23:39;54.90;;;22.92;;
29984;SDS011;17387;42.690;23.328;2023-01-30T06:26:04;61.88;;;22.60;;
29984;SDS011;17387;42.690;23.328;2023-01-30T06:28:30;60.15;;;21.83;;
29984;SDS011;17387;42.690;23.328;2023-01-30T06:30:55;55.88;;;23.55;;
29984;SDS011;17387;42.690;23.328;2023-01-30T06:33:20;51.78;;;21.17;;
29984;SDS011;17387;42.690;23.328;2023-01-30T06:35:47;51.35;;;22.10;;
29984;SDS011;17387;42.690;23.328;2023-01-30T06:38:13;52.60;;;21.08;;
29984;SDS011;17387;42.690;23.328;2023-01-30T06:40:43;55.50;;;22.35;;
29984;SDS011;17387;42.690;23.328;2023-01-30T06:43:08;53.63;;;21.08;;
29984;SDS011;17387;42.690;23.328;2023-01-30T06:45:34;58.53;;;24.40;;
29984;SDS011;17387;42.690;23.328;2023-01-30T06:47:59;54.42;;;23.05;;
29984;SDS011;17387;42.690;23.328;2023-01-30T06:50:25;57.10;;;23.45;;
29984;SDS011;17387;42.690;23.328;2023-01-30T06:52:56;53.60;;;21.83;;
29984;SDS011;17387;42.690;23.328;2023-01-30T06:55:25;46.08;;;19.25;;
29984;SDS011;17387;42.690;23.328;2023-01-30T06:58:01;53.50;;;22.33;;
29984;SDS011;17387;42.690;23.328;2023-01-30T07:00:27;53.20;;;21.52;;
29984;SDS011;17387;42.690;23.328;2023-01-30T07:02:52;52.38;;;21.98;;
29984;SDS011;17387;42.690;23.328;2023-01-30T07:05:18;52.72;;;20.95;;
29984;SDS011;17387;42.690;23.328;2023-01-30T07:07:43;51.53;;;21.83;;
29984;SDS011;17387;42.690;23.328;2023-01-30T07:10:09;51.20;;;20.05;;
29984;SDS011;17387;42.690;23.328;2023-01-30T07:12:36;51.53;;;20.00;;
29984;SDS011;17387;42.690;23.328;2023-01-30T07:15:02;51.67;;;22.00;;
29984;SDS011;17387;42.690;23.328;2023-01-30T07:17:27;50.05;;;21.38;;
29984;SDS011;17387;42.690;23.328;2023-01-30T07:19:52;51.15;;;21.52;;
29984;SDS011;17387;42.690;23.328;2023-01-30T07:22:18;58.25;;;23.17;;
29984;SDS011;17387;42.690;23.328;2023-01-30T07:24:43;55.53;;;23.35;;
29984;SDS011;17387;42.690;23.328;2023-01-30T07:27:09;56.15;;;23.20;;
29984;SDS011;17387;42.690;23.328;2023-01-30T07:29:35;55.78;;;23.17;;
29984;SDS011;17387;42.690;23.328;2023-01-30T07:32:00;51.28;;;20.70;;
29984;SDS011;17387;42.690;23.328;2023-01-30T07:34:26;58.45;;;23.67;;
29984;SDS011;17387;42.690;23.328;2023-01-30T07:36:51;50.53;;;20.50;;
29984;SDS011;17387;42.690;23.328;2023-01-30T07:39:16;51.53;;;21.17;;
29984;SDS011;17387;42.690;23.328;2023-01-30T07:41:42;51.90;;;22.05;;
29984;SDS011;17387;42.690;23.328;2023-01-30T07:44:07;53.15;;;23.40;;
29984;SDS011;17387;42.690;23.328;2023-01-30T07:46:33;49.95;;;21.20;;
29984;SDS011;17387;42.690;23.328;2023-01-30T07:49:02;58.13;;;22.40;;
29984;SDS011;17387;42.690;23.328;2023-01-30T07:51:28;52.55;;;21.38;;
29984;SDS011;17387;42.690;23.328;2023-01-30T07:53:53;52.45;;;22.63;;
29984;SDS011;17387;42.690;23.328;2023-01-30T07:56:18;54.80;;;23.25;;
29984;SDS011;17387;42.690;23.328;2023-01-30T07:58:46;49.83;;;20.58;;
29984;SDS011;17387;42.690;23.328;2023-01-30T08:01:11;44.55;;;20.67;;
29984;SDS011;17387;42.690;23.328;2023-01-30T08:03:36;45.55;;;20.65;;
29984;SDS011;17387;42.690;23.328;2023-01-30T08:06:02;44.10;;;19.40;;
29984;SDS011;17387;42.690;23.328;2023-01-30T08:08:27;48.80;;;20.00;;
29984;SDS011;17387;42.690;23.328;2023-01-30T08:10:52;43.20;;;17.90;;
29984;SDS011;17387;42.690;23.328;2023-01-30T08:13:18;50.72;;;20.73;;
29984;SDS011;17387;42.690;23.328;2023-01-30T08:15:43;41.47;;;18.90;;
29984;SDS011;17387;42.690;23.328;2023-01-30T08:18:08;53.85;;;19.90;;
29984;SDS011;17387;42.690;23.328;2023-01-30T08:20:33;42.95;;;19.38;;
29984;SDS011;17387;42.690;23.328;2023-01-30T08:22:59;38.85;;;16.70;;
29984;SDS011;17387;42.690;23.328;2023-01-30T08:25:26;46.90;;;19.67;;
29984;SDS011;17387;42.690;23.328;2023-01-30T08:27:52;51.65;;;21.63;;
29984;SDS011;17387;42.690;23.328;2023-01-30T08:30:17;53.10;;;20.90;;
29984;SDS011;17387;42.690;23.328;2023-01-30T08:32:43;46.13;;;21.30;;
29984;SDS011;17387;42.690;23.328;2023-01-30T08:35:09;46.13;;;19.70;;
29984;SDS011;17387;42.690;23.328;2023-01-30T08:37:34;42.92;;;18.40;;
29984;SDS011;17387;42.690;23.328;2023-01-30T08:39:59;41.08;;;18.25;;
29984;SDS011;17387;42.690;23.328;2023-01-30T08:42:25;44.95;;;18.67;;
29984;SDS011;17387;42.690;23.328;2023-01-30T08:44:50;41.42;;;19.30;;
29984;SDS011;17387;42.690;23.328;2023-01-30T08:47:15;47.78;;;19.27;;
29984;SDS011;17387;42.690;23.328;2023-01-30T08:49:41;39.58;;;17.83;;
29984;SDS011;17387;42.690;23.328;2023-01-30T08:52:06;35.53;;;15.13;;
29984;SDS011;17387;42.690;23.328;2023-01-30T08:54:31;36.65;;;16.73;;
29984;SDS011;17387;42.690;23.328;2023-01-30T08:56:56;37.70;;;17.15;;
29984;SDS011;17387;42.690;23.328;2023-01-30T08:59:22;36.67;;;15.98;;
29984;SDS011;17387;42.690;23.328;2023-01-30T09:01:47;39.10;;;16.75;;
29984;SDS011;17387;42.690;23.328;2023-01-30T09:04:12;34.45;;;16.05;;
29984;SDS011;17387;42.690;23.328;2023-01-30T09:06:38;36.88;;;15.90;;
29984;SDS011;17387;42.690;23.328;2023-01-30T09:09:03;29.95;;;13.90;;
29984;SDS011;17387;42.690;23.328;2023-01-30T09:11:28;31.65;;;14.45;;
29984;SDS011;17387;42.690;23.328;2023-01-30T09:13:54;31.60;;;13.15;;
29984;SDS011;17387;42.690;23.328;2023-01-30T09:16:20;35.10;;;15.32;;
29984;SDS011;17387;42.690;23.328;2023-01-30T09:18:45;33.17;;;14.77;;
29984;SDS011;17387;42.690;23.328;2023-01-30T09:21:11;31.13;;;14.25;;
29984;SDS011;17387;42.690;23.328;2023-01-30T09:23:36;36.58;;;15.75;;
29984;SDS011;17387;42.690;23.328;2023-01-30T09:26:02;30.15;;;13.57;;
29984;SDS011;17387;42.690;23.328;2023-01-30T09:28:28;28.52;;;14.07;;
29984;SDS011;17387;42.690;23.328;2023-01-30T09:30:55;27.35;;;13.05;;
29984;SDS011;17387;42.690;23.328;2023-01-30T09:33:20;28.02;;;12.98;;
29984;SDS011;17387;42.690;23.328;2023-01-30T09:35:46;30.33;;;13.27;;
29984;SDS011;17387;42.690;23.328;2023-01-30T09:38:12;26.77;;;12.95;;
29984;SDS011;17387;42.690;23.328;2023-01-30T09:40:38;25.52;;;12.38;;
29984;SDS011;17387;42.690;23.328;2023-01-30T09:43:28;29.30;;;13.07;;
29984;SDS011;17387;42.690;23.328;2023-01-30T09:51:26;31.17;;;13.85;;
29984;SDS011;17387;42.690;23.328;2023-01-30T09:56:21;27.92;;;13.30;;
29984;SDS011;17387;42.690;23.328;2023-01-30T09:58:47;30.27;;;14.13;;
29984;SDS011;17387;42.690;23.328;2023-01-30T10:01:24;29.65;;;13.18;;
29984;SDS011;17387;42.690;23.328;2023-01-30T10:04:00;24.27;;;10.93;;
29984;SDS011;17387;42.690;23.328;2023-01-30T10:06:28;33.50;;;13.75;;
29984;SDS011;17387;42.690;23.328;2023-01-30T10:09:03;33.83;;;15.52;;
29984;SDS011;17387;42.690;23.328;2023-01-30T10:14:12;29.35;;;13.07;;
29984;SDS011;17387;42.690;23.328;2023-01-30T10:21:58;27.45;;;12.38;;
29984;SDS011;17387;42.690;23.328;2023-01-30T10:26:57;39.20;;;16.60;;
29984;SDS011;17387;42.690;23.328;2023-01-30T10:29:24;34.00;;;13.85;;
29984;SDS011;17387;42.690;23.328;2023-01-30T10:31:53;34.38;;;16.17;;
29984;SDS011;17387;42.690;23.328;2023-01-30T10:34:21;34.60;;;16.67;;
29984;SDS011;17387;42.690;23.328;2023-01-30T10:36:53;33.67;;;13.95;;
29984;SDS011;17387;42.690;23.328;2023-01-30T10:39:26;33.97;;;14.68;;
29984;SDS011;17387;42.690;23.328;2023-01-30T10:42:03;33.10;;;15.00;;
29984;SDS011;17387;42.690;23.328;2023-01-30T10:44:31;34.33;;;14.82;;
29984;SDS011;17387;42.690;23.328;2023-01-30T10:49:30;39.38;;;16.77;;
29984;SDS011;17387;42.690;23.328;2023-01-30T10:59:40;36.10;;;14.63;;
29984;SDS011;17387;42.690;23.328;2023-01-30T11:02:13;35.08;;;15.07;;
29984;SDS011;17387;42.690;23.328;2023-01-30T11:05:01;35.83;;;14.25;;
29984;SDS011;17387;42.690;23.328;2023-01-30T11:07:29;32.55;;;13.52;;
29984;SDS011;17387;42.690;23.328;2023-01-30T11:09:55;32.70;;;14.52;;
29984;SDS011;17387;42.690;23.328;2023-01-30T11:12:21;40.80;;;15.43;;
29984;SDS011;17387;42.690;23.328;2023-01-30T11:17:19;36.80;;;13.75;;
29984;SDS011;17387;42.690;23.328;2023-01-30T11:19:52;36.30;;;14.40;;
29984;SDS011;17387;42.690;23.328;2023-01-30T11:22:18;36.58;;;13.82;;
29984;SDS011;17387;42.690;23.328;2023-01-30T11:24:46;35.28;;;15.02;;
29984;SDS011;17387;42.690;23.328;2023-01-30T11:29:40;36.67;;;17.05;;
29984;SDS011;17387;42.690;23.328;2023-01-30T11:32:11;33.50;;;14.68;;
29984;SDS011;17387;42.690;23.328;2023-01-30T11:34:36;37.97;;;14.27;;
29984;SDS011;17387;42.690;23.328;2023-01-30T11:37:17;37.50;;;15.75;;
29984;SDS011;17387;42.690;23.328;2023-01-30T11:39:48;36.08;;;15.27;;
29984;SDS011;17387;42.690;23.328;2023-01-30T11:42:14;34.05;;;14.25;;
29984;SDS011;17387;42.690;23.328;2023-01-30T11:44:43;32.25;;;14.07;;
29984;SDS011;17387;42.690;23.328;2023-01-30T11:47:11;33.85;;;15.25;;
29984;SDS011;17387;42.690;23.328;2023-01-30T11:49:40;33.28;;;14.85;;
29984;SDS011;17387;42.690;23.328;2023-01-30T11:52:07;34.22;;;15.23;;
29984;SDS011;17387;42.690;23.328;2023-01-30T11:54:39;36.90;;;16.17;;
29984;SDS011;17387;42.690;23.328;2023-01-30T11:57:08;35.97;;;15.98;;
29984;SDS011;17387;42.690;23.328;2023-01-30T11:59:39;38.97;;;17.08;;
29984;SDS011;17387;42.690;23.328;2023-01-30T12:04:32;31.67;;;14.10;;
29984;SDS011;17387;42.690;23.328;2023-01-30T12:07:13;37.35;;;15.63;;
29984;SDS011;17387;42.690;23.328;2023-01-30T12:09:40;33.47;;;14.50;;
29984;SDS011;17387;42.690;23.328;2023-01-30T12:15:05;40.85;;;16.73;;
29984;SDS011;17387;42.690;23.328;2023-01-30T12:17:41;39.97;;;17.02;;
29984;SDS011;17387;42.690;23.328;2023-01-30T12:22:59;36.38;;;15.13;;
29984;SDS011;17387;42.690;23.328;2023-01-30T12:25:30;35.65;;;15.95;;
29984;SDS011;17387;42.690;23.328;2023-01-30T12:28:01;42.42;;;17.13;;
29984;SDS011;17387;42.690;23.328;2023-01-30T12:30:38;39.30;;;17.00;;
29984;SDS011;17387;42.690;23.328;2023-01-30T12:33:06;38.28;;;16.33;;
29984;SDS011;17387;42.690;23.328;2023-01-30T12:38:07;38.20;;;16.63;;
29984;SDS011;17387;42.690;23.328;2023-01-30T12:40:52;33.83;;;14.65;;
29984;SDS011;17387;42.690;23.328;2023-01-30T12:46:18;35.38;;;14.50;;
29984;SDS011;17387;42.690;23.328;2023-01-30T12:48:49;36.80;;;15.45;;
29984;SDS011;17387;42.690;23.328;2023-01-30T12:56:22;35.47;;;14.60;;
29984;SDS011;17387;42.690;23.328;2023-01-30T12:59:06;36.40;;;15.15;;
29984;SDS011;17387;42.690;23.328;2023-01-30T13:04:21;40.13;;;16.80;;
29984;SDS011;17387;42.690;23.328;2023-01-30T13:14:51;35.92;;;14.52;;
29984;SDS011;17387;42.690;23.328;2023-01-30T13:22:44;37.55;;;16.73;;
29984;SDS011;17387;42.690;23.328;2023-01-30T13:27:43;41.35;;;17.80;;
29984;SDS011;17387;42.690;23.328;2023-01-30T13:30:11;41.45;;;18.42;;
29984;SDS011;17387;42.690;23.328;2023-01-30T13:32:48;37.03;;;14.98;;
29984;SDS011;17387;42.690;23.328;2023-01-30T13:35:34;38.22;;;15.77;;
29984;SDS011;17387;42.690;23.328;2023-01-30T13:38:02;35.22;;;14.38;;
29984;SDS011;17387;42.690;23.328;2023-01-30T13:40:29;39.25;;;17.15;;
29984;SDS011;17387;42.690;23.328;2023-01-30T13:42:59;38.70;;;16.47;;
29984;SDS011;17387;42.690;23.328;2023-01-30T13:45:29;40.55;;;16.23;;
29984;SDS011;17387;42.690;23.328;2023-01-30T13:53:18;39.20;;;16.42;;
29984;SDS011;17387;42.690;23.328;2023-01-30T14:00:52;40.38;;;16.90;;
29984;SDS011;17387;42.690;23.328;2023-01-30T14:03:25;41.38;;;17.42;;
29984;SDS011;17387;42.690;23.328;2023-01-30T14:08:21;38.72;;;16.15;;
29984;SDS011;17387;42.690;23.328;2023-01-30T14:10:50;41.10;;;17.42;;
29984;SDS011;17387;42.690;23.328;2023-01-30T14:13:15;38.78;;;17.38;;
29984;SDS011;17387;42.690;23.328;2023-01-30T14:16:03;43.25;;;16.80;;
29984;SDS011;17387;42.690;23.328;2023-01-30T14:18:34;39.13;;;17.13;;
29984;SDS011;17387;42.690;23.328;2023-01-30T14:21:12;36.50;;;15.90;;
29984;SDS011;17387;42.690;23.328;2023-01-30T14:23:38;37.65;;;16.27;;
29984;SDS011;17387;42.690;23.328;2023-01-30T14:26:05;36.83;;;16.45;;
29984;SDS011;17387;42.690;23.328;2023-01-30T14:30:56;42.83;;;17.77;;
29984;SDS011;17387;42.690;23.328;2023-01-30T14:38:25;42.63;;;18.73;;
29984;SDS011;17387;42.690;23.328;2023-01-30T14:43:45;40.38;;;17.83;;
29984;SDS011;17387;42.690;23.328;2023-01-30T14:53:49;37.83;;;16.05;;
29984;SDS011;17387;42.690;23.328;2023-01-30T14:56:15;39.13;;;15.85;;
29984;SDS011;17387;42.690;23.328;2023-01-30T14:58:53;37.20;;;16.77;;
29984;SDS011;17387;42.690;23.328;2023-01-30T15:01:20;41.13;;;16.80;;
29984;SDS011;17387;42.690;23.328;2023-01-30T15:03:46;38.20;;;17.85;;
29984;SDS011;17387;42.690;23.328;2023-01-30T15:06:12;40.80;;;17.58;;
29984;SDS011;17387;42.690;23.328;2023-01-30T15:08:40;40.35;;;17.70;;
29984;SDS011;17387;42.690;23.328;2023-01-30T15:11:07;39.92;;;16.83;;
29984;SDS011;17387;42.690;23.328;2023-01-30T15:29:21;52.95;;;22.15;;
29984;SDS011;17387;42.690;23.328;2023-01-30T15:31:55;50.38;;;20.55;;
29984;SDS011;17387;42.690;23.328;2023-01-30T15:36:46;46.42;;;19.23;;
29984;SDS011;17387;42.690;23.328;2023-01-30T15:39:21;47.92;;;19.60;;
29984;SDS011;17387;42.690;23.328;2023-01-30T15:41:47;50.67;;;21.08;;
29984;SDS011;17387;42.690;23.328;2023-01-30T15:44:19;52.80;;;20.27;;
29984;SDS011;17387;42.690;23.328;2023-01-30T15:46:53;50.10;;;19.70;;
29984;SDS011;17387;42.690;23.328;2023-01-30T15:52:01;49.67;;;19.95;;
29984;SDS011;17387;42.690;23.328;2023-01-30T15:54:27;40.78;;;17.77;;
29984;SDS011;17387;42.690;23.328;2023-01-30T15:56:55;47.13;;;19.63;;
29984;SDS011;17387;42.690;23.328;2023-01-30T15:59:29;46.22;;;19.55;;
29984;SDS011;17387;42.690;23.328;2023-01-30T16:02:00;45.78;;;18.05;;
29984;SDS011;17387;42.690;23.328;2023-01-30T16:04:26;46.55;;;17.17;;
29984;SDS011;17387;42.690;23.328;2023-01-30T16:06:52;45.72;;;17.70;;
29984;SDS011;17387;42.690;23.328;2023-01-30T16:09:18;42.50;;;18.27;;
29984;SDS011;17387;42.690;23.328;2023-01-30T16:11:44;45.40;;;19.60;;
29984;SDS011;17387;42.690;23.328;2023-01-30T16:14:19;44.97;;;18.25;;
29984;SDS011;17387;42.690;23.328;2023-01-30T16:19:15;46.20;;;17.75;;
29984;SDS011;17387;42.690;23.328;2023-01-30T16:21:43;44.08;;;18.95;;
29984;SDS011;17387;42.690;23.328;2023-01-30T16:24:16;43.15;;;17.00;;
29984;SDS011;17387;42.690;23.328;2023-01-30T16:26:45;45.90;;;18.23;;
29984;SDS011;17387;42.690;23.328;2023-01-30T16:29:15;44.08;;;16.45;;
29984;SDS011;17387;42.690;23.328;2023-01-30T16:31:41;46.90;;;21.23;;
29984;SDS011;17387;42.690;23.328;2023-01-30T16:36:49;47.55;;;18.00;;
29984;SDS011;17387;42.690;23.328;2023-01-30T16:39:28;37.25;;;14.73;;
29984;SDS011;17387;42.690;23.328;2023-01-30T16:41:54;43.50;;;17.00;;
29984;SDS011;17387;42.690;23.328;2023-01-30T16:44:24;39.28;;;15.90;;
29984;SDS011;17387;42.690;23.328;2023-01-30T16:47:05;36.88;;;15.40;;
29984;SDS011;17387;42.690;23.328;2023-01-30T16:58:18;30.45;;;12.65;;
29984;SDS011;17387;42.690;23.328;2023-01-30T17:00:52;44.63;;;17.48;;
29984;SDS011;17387;42.690;23.328;2023-01-30T17:03:19;43.30;;;17.10;;
29984;SDS011;17387;42.690;23.328;2023-01-30T17:05:46;44.50;;;18.52;;